CST,Max TemperatureF,Mean TemperatureF,Min TemperatureF,Max Dew PointF,MeanDew PointF,Min DewpointF,Max Humidity, Mean Humidity, Min Humidity, Max Sea Level PressureIn, Mean Sea Level PressureIn, Min Sea Level PressureIn, Max VisibilityMiles, Mean VisibilityMiles, Min VisibilityMiles, Max Wind SpeedMPH, Mean Wind SpeedMPH, Max Gust SpeedMPH,PrecipitationIn, CloudCover, Events, WindDirDegrees
2013-1-1,24,17,10,19,12,7,92,77,58,30.30,30.25,30.17,10,10,10,12,6,,0.00,3,,342
2013-1-2,33,22,10,25,17,7,92,76,64,30.25,30.20,30.13,10,10,10,12,6,18,0.00,1,,207
2013-1-3,37,30,23,28,23,19,93,77,64,30.41,30.35,30.25,10,10,10,10,4,,0.00,4,,266
2013-1-4,41,30,19,27,23,18,93,76,57,30.41,30.34,30.26,10,10,7,15,5,23,0.00,0,,188
2013-1-5,41,36,30,34,30,25,87,80,70,30.26,30.18,30.08,10,10,10,16,9,24,0.00,4,Rain,198
2013-1-6,37,30,23,25,21,18,86,71,52,30.38,30.30,30.16,10,10,10,15,7,18,0.00,1,,257
2013-1-7,48,36,24,27,24,19,80,66,43,30.31,30.19,30.07,10,10,10,16,9,22,0.00,0,,173
2013-1-8,51,42,32,36,30,25,80,67,44,30.19,30.07,30.00,10,10,10,17,8,22,0.00,2,,180
2013-1-9,53,42,30,34,31,28,100,73,44,30.42,30.35,30.20,10,10,7,9,4,,0.00,0,,75
2013-1-10,50,42,35,48,40,28,100,88,57,30.35,30.00,29.75,10,7,0,16,8,21,0.15,7,Fog-Rain,96
2013-1-11,60,54,48,48,45,43,94,72,52,29.78,29.70,29.62,10,10,5,20,11,26,0.01,3,,176
2013-1-12,55,40,23,45,24,14,93,69,35,30.08,29.98,29.73,10,9,1,17,11,24,0.00,7,Snow,314
2013-1-13,26,19,10,14,10,7,92,67,51,30.37,30.21,30.03,10,10,10,14,8,16,0.00,1,,301
2013-1-14,28,17,6,12,8,3,86,69,40,30.50,30.43,30.37,10,10,10,9,2,,0.00,0,,23
2013-1-15,30,19,8,18,11,5,92,72,43,30.40,30.31,30.18,10,10,10,8,1,,0.00,1,,41
2013-1-16,41,26,12,25,18,9,92,68,45,30.19,30.10,30.03,10,10,10,16,6,23,0.00,1,,198
2013-1-17,42,36,30,30,27,25,93,79,53,30.47,30.38,30.17,10,10,10,13,7,16,0.00,1,,325
2013-1-18,53,42,30,32,29,25,80,63,41,30.43,30.24,30.06,10,10,10,23,12,33,0.00,0,,182
2013-1-19,59,50,41,34,31,28,70,55,34,30.24,30.07,30.00,10,10,10,20,13,24,0.00,0,,233
2013-1-20,39,31,23,28,15,10,81,55,41,30.38,30.32,30.24,10,10,10,14,7,18,0.00,1,,359
2013-1-21,23,18,14,12,6,-2,86,57,36,30.44,30.40,30.37,10,10,10,15,7,18,0.00,5,,323
2013-1-22,30,22,14,10,6,1,73,53,34,30.43,30.35,30.28,10,10,10,9,5,,0.00,1,,49
2013-1-23,46,30,14,23,16,9,86,61,37,30.42,30.25,30.17,10,10,10,12,4,17,0.00,0,,337
2013-1-24,28,20,12,16,8,3,74,54,40,30.52,30.38,30.18,10,10,10,15,11,24,0.00,3,,53
2013-1-25,44,34,23,21,16,10,69,51,36,30.25,30.19,30.14,10,10,10,10,3,,0.00,2,,259
2013-1-26,51,38,26,27,24,21,80,60,33,30.31,30.23,30.12,10,10,10,12,4,,0.00,0,,92
2013-1-27,60,48,37,54,42,23,93,77,43,30.12,29.93,29.79,10,10,7,22,12,31,0.04,6,Rain,161
2013-1-28,73,64,55,59,55,52,88,72,53,29.88,29.81,29.71,10,10,10,22,10,31,0.00,6,,171
2013-1-29,64,50,35,59,48,36,100,89,72,29.69,29.57,29.46,10,8,2,20,11,25,0.06,6,Rain-Thunderstorm,184
2013-1-30,35,30,26,34,23,16,100,78,64,29.99,29.74,29.46,10,8,2,23,12,31,0.02,8,Snow,290
2013-1-31,28,19,10,21,11,1,80,67,50,30.48,30.18,29.95,10,10,10,22,9,30,0.00,3,,277